createdAt,value
2023-02-08T00:02:19.602Z,-1.70
2023-02-08T00:07:13.024Z,-1.90
2023-02-08T00:12:06.675Z,-1.90
2023-02-08T00:17:01.433Z,-1.90
2023-02-08T00:21:54.802Z,-2.00
2023-02-08T00:26:48.184Z,-2.20
2023-02-08T00:31:41.644Z,-2.10
2023-02-08T00:36:36.449Z,-2.00
2023-02-08T00:41:29.940Z,-2.00
2023-02-08T00:46:23.548Z,-2.10
2023-02-08T00:51:16.977Z,-2.10
2023-02-08T00:56:14.017Z,-2.20
2023-02-08T01:01:08.758Z,-2.50
2023-02-08T01:06:03.796Z,-2.40
2023-02-08T01:11:05.596Z,-2.40
2023-02-08T01:16:11.115Z,-2.30
2023-02-08T01:21:09.951Z,-2.40
2023-02-08T01:26:03.317Z,-2.40
2023-02-08T01:30:56.644Z,-2.50
2023-02-08T01:35:53.817Z,-2.80
2023-02-08T01:40:47.765Z,-2.90
2023-02-08T01:45:42.210Z,-2.90
2023-02-08T01:50:46.302Z,-2.90
2023-02-08T02:00:43.850Z,-2.60
2023-02-08T02:05:43.484Z,-2.30
2023-02-08T02:10:40.212Z,-2.20
2023-02-08T02:15:35.164Z,-2.20
2023-02-08T02:26:32.473Z,-2.00
2023-02-08T02:31:55.413Z,-1.90
2023-02-08T02:37:01.973Z,-1.80
2023-02-08T02:42:24.674Z,-1.80
2023-02-08T02:47:26.468Z,-1.80
2023-02-08T02:52:33.579Z,-2.00
2023-02-08T02:57:33.836Z,-2.00
2023-02-08T03:02:29.158Z,-2.10
2023-02-08T03:08:00.780Z,-2.10
2023-02-08T03:13:04.822Z,-2.30
2023-02-08T03:18:13.071Z,-2.30
2023-02-08T03:28:26.837Z,-2.30
2023-02-08T03:33:30.522Z,-2.40
2023-02-08T03:38:32.896Z,-2.20
2023-02-08T03:43:33.747Z,-2.10
2023-02-08T03:48:31.194Z,-2.20
2023-02-08T03:53:27.385Z,-2.20
2023-02-08T03:58:32.862Z,-2.30
2023-02-08T04:03:29.778Z,-2.30
2023-02-08T04:08:23.442Z,-2.30
2023-02-08T04:13:16.848Z,-2.20
2023-02-08T04:18:11.539Z,-2.30
2023-02-08T04:23:04.904Z,-2.40
2023-02-08T04:27:58.239Z,-2.50
2023-02-08T04:32:51.552Z,-2.60
2023-02-08T04:37:46.181Z,-2.50
2023-02-08T04:42:39.523Z,-2.50
2023-02-08T04:47:32.851Z,-2.50
2023-02-08T04:52:26.134Z,-2.50
2023-02-08T04:57:20.829Z,-2.50
2023-02-08T05:02:14.113Z,-2.60
2023-02-08T05:07:07.432Z,-2.50
2023-02-08T05:12:00.762Z,-2.60
2023-02-08T05:16:55.437Z,-2.80
2023-02-08T05:21:48.745Z,-2.70
2023-02-08T05:26:42.819Z,-2.70
2023-02-08T05:31:36.554Z,-2.50
2023-02-08T05:36:31.500Z,-2.60
2023-02-08T05:41:24.868Z,-2.70
2023-02-08T05:46:18.337Z,-2.70
2023-02-08T05:51:11.772Z,-3.10
2023-02-08T05:56:07.320Z,-3.00
2023-02-08T06:01:00.625Z,-2.90
2023-02-08T06:05:54.569Z,-3.10
2023-02-08T06:10:50.473Z,-3.00
2023-02-08T06:15:45.155Z,-3.10
2023-02-08T06:20:39.216Z,-3.10
2023-02-08T06:25:32.968Z,-3.30
2023-02-08T06:30:26.407Z,-3.20
2023-02-08T06:35:21.347Z,-3.00
2023-02-08T06:40:14.810Z,-3.10
2023-02-08T06:45:12.636Z,-3.10
2023-02-08T06:50:07.720Z,-3.10
2023-02-08T06:55:02.529Z,-3.10
2023-02-08T06:59:55.905Z,-3.00
2023-02-08T07:04:50.249Z,-2.90
2023-02-08T07:09:44.068Z,-3.10
2023-02-08T07:14:42.572Z,-2.90
2023-02-08T07:19:35.990Z,-2.80
2023-02-08T07:24:29.314Z,-2.60
2023-02-08T07:29:22.964Z,-2.50
2023-02-08T07:34:21.945Z,-2.70
2023-02-08T07:39:15.391Z,-2.60
2023-02-08T07:44:08.739Z,-2.50
2023-02-08T07:49:02.136Z,-2.60
2023-02-08T07:53:56.867Z,-2.50
2023-02-08T07:58:50.231Z,-2.50
2023-02-08T08:03:43.537Z,-2.50
2023-02-08T08:08:36.905Z,-2.60
2023-02-08T08:13:31.646Z,-2.40
2023-02-08T08:18:25.164Z,-2.40
2023-02-08T08:23:19.675Z,-2.40
2023-02-08T08:28:13.117Z,-2.30
2023-02-08T08:33:07.844Z,-2.20
2023-02-08T08:38:01.164Z,-2.50
2023-02-08T08:42:54.499Z,-2.20
2023-02-08T08:47:47.820Z,-2.20
2023-02-08T08:52:42.796Z,-2.00
2023-02-08T08:57:36.271Z,-1.70
2023-02-08T09:02:29.663Z,-1.80
2023-02-08T09:07:23.023Z,-1.80
2023-02-08T09:12:17.826Z,-1.60
2023-02-08T09:17:11.333Z,-1.30
2023-02-08T09:22:06.797Z,-1.10
2023-02-08T09:27:00.200Z,-0.80
2023-02-08T09:31:55.206Z,-1.00
2023-02-08T09:36:48.652Z,-1.10
2023-02-08T09:42:22.301Z,-0.70
2023-02-08T09:47:22.521Z,-0.60
2023-02-08T09:52:25.552Z,-0.20
2023-02-08T09:57:25.575Z,-0.20
2023-02-08T10:02:27.916Z,-0.10
2023-02-08T10:07:21.235Z,-0.30
2023-02-08T10:12:30.859Z,-0.30
2023-02-08T10:17:48.654Z,-0.20
2023-02-08T10:22:59.358Z,-0.20
2023-02-08T10:28:14.066Z,-0.20
2023-02-08T10:33:18.726Z,-0.10
2023-02-08T10:38:31.841Z,0.00
2023-02-08T10:43:42.908Z,0.00
2023-02-08T10:48:54.648Z,-0.10
2023-02-08T10:53:49.406Z,0.00
2023-02-08T10:58:42.864Z,-0.10
2023-02-08T11:03:40.667Z,-0.20
2023-02-08T11:08:56.354Z,-0.20
2023-02-08T11:13:51.782Z,-0.20
2023-02-08T11:18:52.778Z,-0.20
2023-02-08T11:23:53.859Z,-0.20
2023-02-08T11:29:02.226Z,-0.30
2023-02-08T11:34:03.045Z,-0.30
2023-02-08T11:39:01.963Z,-0.30
2023-02-08T11:44:03.958Z,-0.40
2023-02-08T11:48:58.267Z,-0.30
2023-02-08T11:53:51.720Z,-0.20
2023-02-08T11:59:06.876Z,-0.20
2023-02-08T12:04:05.687Z,-0.30
2023-02-08T12:09:13.130Z,-0.30
2023-02-08T12:20:01.644Z,-0.10
2023-02-08T12:25:14.742Z,0.00
2023-02-08T12:30:22.567Z,0.00
2023-02-08T12:36:04.637Z,0.10
2023-02-08T12:46:34.209Z,0.30
2023-02-08T12:51:42.659Z,0.30
2023-02-08T12:56:46.583Z,0.40
2023-02-08T13:01:47.576Z,0.40
2023-02-08T13:11:58.405Z,0.50
2023-02-08T13:16:59.685Z,0.60
2023-02-08T13:21:56.139Z,0.50
2023-02-08T13:26:50.996Z,0.60
2023-02-08T13:31:50.032Z,0.60
2023-02-08T13:36:55.756Z,0.50
2023-02-08T13:41:55.534Z,0.50
2023-02-08T13:46:51.580Z,0.60
2023-02-08T13:51:55.386Z,0.60
2023-02-08T13:56:52.187Z,0.60
2023-02-08T14:02:28.423Z,0.60
2023-02-08T14:07:39.814Z,0.70
2023-02-08T14:12:45.107Z,0.80
2023-02-08T14:17:43.105Z,0.70
2023-02-08T14:22:48.999Z,0.60
2023-02-08T14:27:51.637Z,0.70
2023-02-08T14:32:48.853Z,0.70
2023-02-08T14:37:44.493Z,0.80
2023-02-08T14:43:01.472Z,0.90
2023-02-08T14:48:07.565Z,0.90
2023-02-08T14:53:21.035Z,0.90
2023-02-08T14:58:27.086Z,1.00
2023-02-08T15:03:21.218Z,1.10
2023-02-08T15:08:14.779Z,1.10
2023-02-08T15:13:21.451Z,1.10
2023-02-08T15:18:21.469Z,1.00
2023-02-08T15:23:23.127Z,1.00
2023-02-08T15:28:23.615Z,0.90
2023-02-08T15:33:18.898Z,0.80
2023-02-08T15:38:20.351Z,0.70
2023-02-08T15:43:15.058Z,0.70
2023-02-08T15:48:10.316Z,0.60
2023-02-08T15:53:08.860Z,0.50
2023-02-08T15:58:08.066Z,0.40
2023-02-08T16:03:08.514Z,0.20
2023-02-08T16:08:05.749Z,0.20
2023-02-08T16:13:03.601Z,0.00
2023-02-08T16:17:56.888Z,-0.10
2023-02-08T16:22:58.379Z,-0.10
2023-02-08T16:27:53.281Z,-0.20
2023-02-08T16:32:46.903Z,-0.20
2023-02-08T16:37:40.803Z,-0.20
2023-02-08T16:42:39.791Z,-0.30
2023-02-08T16:47:40.615Z,-0.30
2023-02-08T16:52:35.258Z,-0.30
2023-02-08T16:57:41.729Z,-0.40
2023-02-08T17:02:35.024Z,-0.60
2023-02-08T17:07:32.123Z,-0.60
2023-02-08T17:12:25.630Z,-0.60
2023-02-08T17:17:20.042Z,-0.60
2023-02-08T17:22:13.381Z,-0.60
2023-02-08T17:27:08.055Z,-0.60
2023-02-08T17:32:01.402Z,-0.50
2023-02-08T17:36:54.808Z,-0.50
2023-02-08T17:41:48.188Z,-0.60
2023-02-08T17:46:43.791Z,-0.60
2023-02-08T17:51:37.118Z,-0.70
2023-02-08T17:56:31.518Z,-0.70
2023-02-08T18:01:28.043Z,-0.90
2023-02-08T18:06:24.909Z,-0.90
2023-02-08T18:11:20.975Z,-1.00
2023-02-08T18:16:17.727Z,-1.00
2023-02-08T18:21:12.999Z,-1.10
2023-02-08T18:26:10.386Z,-1.00
2023-02-08T18:31:05.418Z,-1.00
2023-02-08T18:35:58.851Z,-1.20
2023-02-08T18:40:52.529Z,-1.20
2023-02-08T18:45:49.386Z,-1.30
2023-02-08T18:50:43.553Z,-1.20
2023-02-08T18:55:36.838Z,-1.20
2023-02-08T19:00:30.276Z,-1.20
2023-02-08T19:05:25.008Z,-1.20
2023-02-08T19:10:20.336Z,-1.20
2023-02-08T19:15:13.689Z,-1.20
2023-02-08T19:20:08.545Z,-1.20
2023-02-08T19:25:03.279Z,-1.50
2023-02-08T19:29:56.997Z,-1.50
2023-02-08T19:34:51.272Z,-1.40
2023-02-08T19:39:44.570Z,-1.50
2023-02-08T19:44:39.324Z,-1.60
2023-02-08T19:49:32.657Z,-1.70
2023-02-08T19:54:26.326Z,-1.80
2023-02-08T19:59:22.914Z,-1.80
2023-02-08T20:04:17.692Z,-1.80
2023-02-08T20:09:13.813Z,-1.80
2023-02-08T20:19:13.277Z,-1.70
2023-02-08T20:24:10.162Z,-1.70
2023-02-08T20:29:03.613Z,-1.70
2023-02-08T20:33:59.991Z,-1.80
2023-02-08T20:38:55.943Z,-2.00
2023-02-08T20:43:51.190Z,-2.00
2023-02-08T20:53:55.817Z,-2.30
2023-02-08T21:03:59.704Z,-2.40
2023-02-08T21:08:55.416Z,-2.20
2023-02-08T21:13:49.145Z,-2.30
2023-02-08T21:18:42.810Z,-2.40
2023-02-08T21:23:38.617Z,-2.50
2023-02-08T21:28:32.572Z,-2.80
2023-02-08T21:33:26.163Z,-3.00
2023-02-08T21:38:19.546Z,-2.70
2023-02-08T21:43:16.964Z,-2.60
2023-02-08T21:48:10.518Z,-2.60
2023-02-08T21:58:10.217Z,-2.50
2023-02-08T22:03:05.574Z,-2.40
2023-02-08T22:08:01.185Z,-2.60
2023-02-08T22:12:57.436Z,-2.70
2023-02-08T22:17:55.091Z,-2.70
2023-02-08T22:22:52.611Z,-2.70
2023-02-08T22:27:47.997Z,-2.80
2023-02-08T22:32:42.172Z,-2.70
2023-02-08T22:37:36.165Z,-2.80
2023-02-08T22:42:31.101Z,-2.80
2023-02-08T22:47:25.547Z,-2.80
2023-02-08T22:52:18.913Z,-2.90
2023-02-08T22:57:13.004Z,-2.80
2023-02-08T23:02:07.963Z,-2.90
2023-02-08T23:07:01.732Z,-3.00
2023-02-08T23:11:55.092Z,-3.10
2023-02-08T23:16:48.517Z,-3.00
2023-02-08T23:21:44.189Z,-3.10
2023-02-08T23:26:37.713Z,-3.10
2023-02-08T23:31:31.386Z,-3.00
2023-02-08T23:36:25.141Z,-3.00
2023-02-08T23:41:24.484Z,-3.00
2023-02-08T23:46:21.548Z,-3.00
2023-02-08T23:51:17.028Z,-3.10
2023-02-08T23:56:19.625Z,-3.50
